createdAt,value
2019-03-05T00:00:52.055Z,100.43
2019-03-05T00:04:00.021Z,100.52
2019-03-05T00:07:05.329Z,100.98
2019-03-05T00:10:11.686Z,101.56
2019-03-05T00:13:17.078Z,102.49
2019-03-05T00:16:22.507Z,103.00
2019-03-05T00:19:27.816Z,103.19
2019-03-05T00:22:33.143Z,103.88
2019-03-05T00:25:38.541Z,103.43
2019-03-05T00:29:25.717Z,104.09
2019-03-05T00:32:31.072Z,103.97
2019-03-05T00:35:43.385Z,104.52
2019-03-05T00:39:35.171Z,104.81
2019-03-05T00:43:02.637Z,105.55
2019-03-05T00:46:56.146Z,105.69
2019-03-05T00:50:42.093Z,106.63
2019-03-05T00:54:05.489Z,106.70
2019-03-05T00:57:54.681Z,107.28
2019-03-05T01:01:30.081Z,107.09
2019-03-05T01:05:25.870Z,107.17
2019-03-05T01:08:33.165Z,107.83
2019-03-05T01:11:38.597Z,108.02
2019-03-05T01:14:44.191Z,107.71
2019-03-05T01:17:50.467Z,107.96
2019-03-05T01:20:55.716Z,107.98
2019-03-05T01:24:00.999Z,107.87
2019-03-05T01:27:06.432Z,108.02
2019-03-05T01:30:29.489Z,107.99
2019-03-05T01:33:39.505Z,108.00
2019-03-05T01:36:47.802Z,107.80
2019-03-05T01:40:18.021Z,107.57
2019-03-05T01:43:23.294Z,106.84
2019-03-05T01:46:30.259Z,106.48
2019-03-05T01:49:35.476Z,105.39
2019-03-05T01:52:40.766Z,105.64
2019-03-05T01:55:46.034Z,105.53
2019-03-05T01:58:51.360Z,104.62
2019-03-05T02:01:56.626Z,104.57
2019-03-05T02:05:01.866Z,105.00
2019-03-05T02:08:07.115Z,104.94
2019-03-05T02:11:13.468Z,104.65
2019-03-05T02:14:18.711Z,104.62
2019-03-05T02:17:24.951Z,104.67
2019-03-05T02:20:30.289Z,103.20
2019-03-05T02:24:00.789Z,103.34
2019-03-05T02:27:47.771Z,103.36
2019-03-05T02:31:23.124Z,102.76
2019-03-05T02:35:12.400Z,102.43
2019-03-05T02:38:29.554Z,101.41
2019-03-05T02:41:52.908Z,101.06
2019-03-05T02:45:38.942Z,101.09
2019-03-05T02:49:49.725Z,100.74
2019-03-05T02:53:42.036Z,100.01
2019-03-05T02:57:01.320Z,99.51
2019-03-05T03:00:13.034Z,98.03
2019-03-05T03:03:27.053Z,98.25
2019-03-05T03:06:34.511Z,98.17
2019-03-05T03:10:14.006Z,97.44
2019-03-05T03:13:19.339Z,98.32
2019-03-05T03:16:24.642Z,97.94
2019-03-05T03:19:29.926Z,98.21
2019-03-05T03:22:35.213Z,98.27
2019-03-05T03:25:40.473Z,98.10
2019-03-05T03:28:45.681Z,97.44
2019-03-05T03:31:50.975Z,97.22
2019-03-05T03:34:56.550Z,97.42
2019-03-05T03:38:02.006Z,97.35
2019-03-05T03:41:08.480Z,96.84
2019-03-05T03:44:13.781Z,96.64
2019-03-05T03:47:19.024Z,96.75
2019-03-05T03:50:24.458Z,95.59
2019-03-05T03:53:29.874Z,95.86
2019-03-05T03:56:35.101Z,96.69
2019-03-05T03:59:40.362Z,95.57
2019-03-05T04:02:45.706Z,95.20
2019-03-05T04:05:53.162Z,94.47
2019-03-05T04:08:58.514Z,93.27
2019-03-05T04:12:03.785Z,93.68
2019-03-05T04:15:11.802Z,93.37
2019-03-05T04:18:17.067Z,92.78
2019-03-05T04:21:22.326Z,92.73
2019-03-05T04:24:27.595Z,93.32
2019-03-05T04:27:32.904Z,93.02
2019-03-05T04:30:38.247Z,93.48
2019-03-05T04:33:43.554Z,91.86
2019-03-05T04:36:48.845Z,92.07
2019-03-05T04:39:54.059Z,92.12
2019-03-05T04:42:59.446Z,91.92
2019-03-05T04:46:28.235Z,92.06
2019-03-05T04:49:44.096Z,90.64
2019-03-05T04:52:49.374Z,89.72
2019-03-05T04:55:54.645Z,89.71
2019-03-05T04:58:59.921Z,89.87
2019-03-05T05:02:05.491Z,91.04
2019-03-05T05:05:10.755Z,89.46
2019-03-05T05:08:16.042Z,89.60
2019-03-05T05:11:21.439Z,89.33
2019-03-05T05:14:26.764Z,91.49
2019-03-05T05:17:31.999Z,91.72
2019-03-05T05:20:37.255Z,92.50
2019-03-05T05:23:42.505Z,92.26
2019-03-05T05:26:49.313Z,92.59
2019-03-05T05:29:54.609Z,93.24
2019-03-05T05:33:00.775Z,92.59
2019-03-05T05:36:08.325Z,92.75
2019-03-05T05:39:49.390Z,92.79
2019-03-05T05:42:54.680Z,93.36
2019-03-05T05:46:00.025Z,93.62
2019-03-05T05:49:05.363Z,93.51
2019-03-05T05:52:10.730Z,94.22
2019-03-05T05:55:15.971Z,94.24
2019-03-05T05:58:21.215Z,94.75
2019-03-05T06:01:26.466Z,93.86
2019-03-05T06:04:31.703Z,94.61
2019-03-05T06:07:36.977Z,94.70
2019-03-05T06:10:42.280Z,94.32
2019-03-05T06:13:47.559Z,94.57
2019-03-05T06:16:52.939Z,94.07
2019-03-05T06:19:58.172Z,94.83
2019-03-05T06:23:03.472Z,94.76
2019-03-05T06:26:08.933Z,93.99
2019-03-05T06:29:14.175Z,94.55
2019-03-05T06:32:19.431Z,93.62
2019-03-05T06:35:25.763Z,94.12
2019-03-05T06:38:31.021Z,92.72
2019-03-05T06:41:36.361Z,93.58
2019-03-05T06:44:41.700Z,93.38
2019-03-05T06:47:46.929Z,92.29
2019-03-05T06:50:52.190Z,93.06
2019-03-05T06:53:57.519Z,92.87
2019-03-05T06:57:02.745Z,92.58
2019-03-05T07:00:24.154Z,91.87
2019-03-05T07:03:29.477Z,91.58
2019-03-05T07:07:00.338Z,92.72
2019-03-05T07:10:29.230Z,91.26
2019-03-05T07:13:35.644Z,90.61
2019-03-05T07:17:07.957Z,92.03
2019-03-05T07:20:53.099Z,90.42
2019-03-05T07:24:28.053Z,90.52
2019-03-05T07:27:38.394Z,90.57
2019-03-05T07:30:43.703Z,92.52
2019-03-05T07:33:49.025Z,92.66
2019-03-05T07:36:55.253Z,90.94
2019-03-05T07:40:00.485Z,90.58
2019-03-05T07:43:05.793Z,90.37
2019-03-05T07:46:11.097Z,89.78
2019-03-05T07:49:18.848Z,90.15
2019-03-05T07:52:23.498Z,89.84
2019-03-05T07:55:28.762Z,89.23
2019-03-05T07:58:34.164Z,89.07
2019-03-05T08:01:39.449Z,88.52
2019-03-05T08:04:44.889Z,88.17
2019-03-05T08:07:51.624Z,87.45
2019-03-05T08:10:56.874Z,87.97
2019-03-05T08:14:28.733Z,89.60
2019-03-05T08:17:34.010Z,89.68
2019-03-05T08:20:39.328Z,90.58
2019-03-05T08:23:44.564Z,90.65
2019-03-05T08:26:50.783Z,91.14
2019-03-05T08:29:57.613Z,90.45
2019-03-05T08:33:03.094Z,90.21
2019-03-05T08:36:08.460Z,90.59
2019-03-05T08:39:13.829Z,89.83
2019-03-05T08:42:19.113Z,89.21
2019-03-05T08:45:29.253Z,89.26
2019-03-05T08:48:31.407Z,89.29
2019-03-05T08:51:36.708Z,90.42
2019-03-05T08:54:42.094Z,89.06
2019-03-05T08:57:47.354Z,88.82
2019-03-05T09:00:52.619Z,88.16
2019-03-05T09:03:58.037Z,88.28
2019-03-05T09:07:03.305Z,86.69
2019-03-05T09:10:11.627Z,87.59
2019-03-05T09:13:16.879Z,86.21
2019-03-05T09:16:22.164Z,87.62
2019-03-05T09:19:28.463Z,87.17
2019-03-05T09:22:35.262Z,85.21
2019-03-05T09:25:42.759Z,84.98
2019-03-05T09:28:47.993Z,84.22
2019-03-05T09:31:53.313Z,83.54
2019-03-05T09:34:58.597Z,84.34
2019-03-05T09:38:03.937Z,84.70
2019-03-05T09:41:09.247Z,84.84
2019-03-05T09:44:14.590Z,86.15
2019-03-05T09:47:19.820Z,83.86
2019-03-05T09:50:25.115Z,82.40
2019-03-05T09:53:30.463Z,82.37
2019-03-05T09:56:35.728Z,82.83
2019-03-05T09:59:41.012Z,82.90
2019-03-05T10:02:46.279Z,84.97
2019-03-05T10:05:51.502Z,85.25
2019-03-05T10:08:56.757Z,86.33
2019-03-05T10:12:02.023Z,91.67
2019-03-05T10:15:10.092Z,91.58
2019-03-05T10:18:15.358Z,95.05
2019-03-05T10:21:20.583Z,96.86
2019-03-05T10:24:28.623Z,94.53
2019-03-05T10:27:33.933Z,94.91
2019-03-05T10:30:40.458Z,93.98
2019-03-05T10:33:45.702Z,95.26
2019-03-05T10:36:51.197Z,94.86
2019-03-05T10:39:56.433Z,93.58
2019-03-05T10:43:08.373Z,94.30
2019-03-05T10:46:11.060Z,92.21
2019-03-05T10:49:16.337Z,91.51
2019-03-05T10:52:21.558Z,92.29
2019-03-05T10:55:26.815Z,94.64
2019-03-05T10:58:34.148Z,93.67
2019-03-05T11:01:39.222Z,93.55
2019-03-05T11:04:46.203Z,91.64
2019-03-05T11:07:52.532Z,92.14
2019-03-05T11:10:59.500Z,92.31
2019-03-05T11:14:05.048Z,91.29
2019-03-05T11:17:10.470Z,89.97
2019-03-05T11:20:15.852Z,89.94
2019-03-05T11:23:21.207Z,89.75
2019-03-05T11:26:26.502Z,90.90
2019-03-05T11:29:31.853Z,89.63
2019-03-05T11:32:37.158Z,90.51
2019-03-05T11:35:42.495Z,91.49
2019-03-05T11:38:47.872Z,90.42
2019-03-05T11:41:53.164Z,89.53
2019-03-05T11:45:07.093Z,88.48
2019-03-05T11:48:05.596Z,89.21
2019-03-05T11:51:12.077Z,87.36
2019-03-05T11:54:17.332Z,85.37
2019-03-05T11:57:22.624Z,85.40
2019-03-05T12:00:36.622Z,86.25
2019-03-05T12:03:41.994Z,84.50
2019-03-05T12:06:47.319Z,85.09
2019-03-05T12:09:52.566Z,83.64
2019-03-05T12:12:57.849Z,83.02
2019-03-05T12:16:07.717Z,83.71
2019-03-05T12:19:13.033Z,82.38
2019-03-05T12:22:18.262Z,82.11
2019-03-05T12:25:23.827Z,84.84
2019-03-05T12:28:29.361Z,81.59
2019-03-05T12:31:34.642Z,81.46
2019-03-05T12:34:39.998Z,82.31
2019-03-05T12:37:45.247Z,81.80
2019-03-05T12:40:50.613Z,81.61
2019-03-05T12:43:55.908Z,85.66
2019-03-05T12:47:01.221Z,85.47
2019-03-05T12:50:08.502Z,87.20
2019-03-05T12:53:15.930Z,86.17
2019-03-05T12:56:24.151Z,84.24
2019-03-05T12:59:27.665Z,83.04
2019-03-05T13:02:32.966Z,83.73
2019-03-05T13:05:38.185Z,79.65
2019-03-05T13:08:43.471Z,80.13
2019-03-05T13:11:49.972Z,80.57
2019-03-05T13:14:55.699Z,80.84
2019-03-05T13:18:02.780Z,77.16
2019-03-05T13:21:14.107Z,77.87
2019-03-05T13:24:19.439Z,77.47
2019-03-05T13:27:24.740Z,76.66
2019-03-05T13:30:30.117Z,77.42
2019-03-05T13:33:38.074Z,78.19
2019-03-05T13:36:42.528Z,79.07
2019-03-05T13:39:47.953Z,76.79
2019-03-05T13:42:53.462Z,74.78
2019-03-05T13:46:00.139Z,75.56
2019-03-05T13:49:57.620Z,75.57
2019-03-05T13:54:01.139Z,74.93
2019-03-05T13:57:40.294Z,76.04
2019-03-05T14:00:45.608Z,75.14
2019-03-05T14:03:56.422Z,74.27
2019-03-05T14:07:45.338Z,74.83
2019-03-05T14:10:50.866Z,74.46
2019-03-05T14:13:56.702Z,74.47
2019-03-05T14:17:37.454Z,74.04
2019-03-05T14:20:42.807Z,72.27
2019-03-05T14:23:48.171Z,74.08
2019-03-05T14:26:53.514Z,70.69
2019-03-05T14:29:58.742Z,69.84
2019-03-05T14:33:04.120Z,70.04
2019-03-05T14:36:09.397Z,68.83
2019-03-05T14:39:25.931Z,70.31
2019-03-05T14:42:31.848Z,69.95
2019-03-05T14:45:37.718Z,67.80
2019-03-05T14:48:43.004Z,67.64
2019-03-05T14:51:48.302Z,67.99
2019-03-05T14:54:53.736Z,68.92
2019-03-05T14:57:59.223Z,67.67
2019-03-05T15:01:05.722Z,67.59
2019-03-05T15:04:11.006Z,68.12
2019-03-05T15:07:16.314Z,69.17
2019-03-05T15:10:21.708Z,68.77
2019-03-05T15:13:28.617Z,68.63
2019-03-05T15:16:34.034Z,68.61
2019-03-05T15:19:39.329Z,70.98
2019-03-05T15:22:44.686Z,69.12
2019-03-05T15:25:50.104Z,68.18
2019-03-05T15:28:56.685Z,68.21
2019-03-05T15:32:03.398Z,68.01
2019-03-05T15:35:08.976Z,68.08
2019-03-05T15:38:14.402Z,68.31
2019-03-05T15:41:19.763Z,68.04
2019-03-05T15:44:25.181Z,68.41
2019-03-05T15:47:30.537Z,69.98
2019-03-05T15:50:35.943Z,71.35
2019-03-05T15:53:42.538Z,69.25
2019-03-05T15:56:47.887Z,70.18
2019-03-05T15:59:53.246Z,70.49
2019-03-05T16:03:00.409Z,72.02
2019-03-05T16:06:05.761Z,70.83
2019-03-05T16:09:18.412Z,70.03
2019-03-05T16:12:23.881Z,70.45
2019-03-05T16:15:29.535Z,71.78
2019-03-05T16:18:39.148Z,71.94
2019-03-05T16:21:42.895Z,72.20
2019-03-05T16:24:48.348Z,71.05
2019-03-05T16:27:53.712Z,70.80
2019-03-05T16:31:11.537Z,71.78
2019-03-05T16:34:29.420Z,71.72
2019-03-05T16:37:57.739Z,72.26
2019-03-05T16:41:24.142Z,73.30
2019-03-05T16:44:45.351Z,73.43
2019-03-05T16:48:04.233Z,72.82
2019-03-05T16:51:27.893Z,72.69
2019-03-05T16:55:04.633Z,75.13
2019-03-05T16:58:22.721Z,73.70
2019-03-05T17:01:46.946Z,75.07
2019-03-05T17:05:11.187Z,75.90
2019-03-05T17:08:35.760Z,74.95
2019-03-05T17:11:54.549Z,76.87
2019-03-05T17:14:59.868Z,78.23
2019-03-05T17:18:05.745Z,76.98
2019-03-05T17:21:11.017Z,77.84
2019-03-05T17:24:16.829Z,77.63
2019-03-05T17:27:22.216Z,79.27
2019-03-05T17:30:27.578Z,80.23
2019-03-05T17:33:33.890Z,78.64
2019-03-05T17:36:40.175Z,79.87
2019-03-05T17:39:45.551Z,80.41
2019-03-05T17:42:51.120Z,81.47
2019-03-05T17:45:56.399Z,82.32
2019-03-05T17:49:01.665Z,82.86
2019-03-05T17:52:07.064Z,81.69
2019-03-05T17:55:23.879Z,81.73
2019-03-05T17:58:22.535Z,82.21
2019-03-05T18:01:27.850Z,82.36
2019-03-05T18:04:34.178Z,83.77
2019-03-05T18:07:39.663Z,84.97
2019-03-05T18:10:45.165Z,86.30
2019-03-05T18:13:50.635Z,87.41
2019-03-05T18:16:56.050Z,87.43
2019-03-05T18:20:03.037Z,86.38
2019-03-05T18:23:09.904Z,87.03
2019-03-05T18:26:15.271Z,88.39
2019-03-05T18:29:20.845Z,87.91
2019-03-05T18:32:26.469Z,87.63
2019-03-05T18:35:31.729Z,88.27
2019-03-05T18:38:37.036Z,88.80
2019-03-05T18:41:42.435Z,89.07
2019-03-05T18:44:48.132Z,90.07
2019-03-05T18:47:53.515Z,87.99
2019-03-05T18:50:58.917Z,88.78
2019-03-05T18:54:04.275Z,90.39
2019-03-05T18:57:09.633Z,88.93
2019-03-05T19:00:17.921Z,89.49
2019-03-05T19:03:23.211Z,90.60
2019-03-05T19:06:28.707Z,90.06
2019-03-05T19:09:34.221Z,90.48
2019-03-05T19:12:39.612Z,90.24
2019-03-05T19:15:46.003Z,90.81
2019-03-05T19:18:51.399Z,93.43
2019-03-05T19:21:56.755Z,93.25
2019-03-05T19:25:02.102Z,93.69
2019-03-05T19:28:07.587Z,95.40
2019-03-05T19:31:13.087Z,95.58
2019-03-05T19:34:18.547Z,93.22
2019-03-05T19:37:23.875Z,94.07
2019-03-05T19:40:31.443Z,92.93
2019-03-05T19:43:36.871Z,94.64
2019-03-05T19:46:42.202Z,94.79
2019-03-05T19:49:47.610Z,96.38
2019-03-05T19:52:53.110Z,96.74
2019-03-05T19:55:58.444Z,96.51
2019-03-05T19:59:03.800Z,96.64
2019-03-05T20:02:09.120Z,95.62
2019-03-05T20:05:16.275Z,96.63
2019-03-05T20:08:21.959Z,97.53
2019-03-05T20:11:27.331Z,97.70
2019-03-05T20:14:32.652Z,98.07
2019-03-05T20:17:37.988Z,97.93
2019-03-05T20:20:43.302Z,97.67
2019-03-05T20:23:48.535Z,98.02
2019-03-05T20:26:53.924Z,99.01
2019-03-05T20:29:59.255Z,97.24
2019-03-05T20:33:05.807Z,98.55
2019-03-05T20:36:11.286Z,98.05
2019-03-05T20:39:17.110Z,99.08
2019-03-05T20:42:22.564Z,99.79
2019-03-05T20:45:29.476Z,100.21
2019-03-05T20:48:34.860Z,101.04
2019-03-05T20:51:45.755Z,101.43
2019-03-05T20:54:51.253Z,100.31
2019-03-05T20:57:56.889Z,99.66
2019-03-05T21:01:02.310Z,96.92
2019-03-05T21:04:07.729Z,95.45
2019-03-05T21:07:13.217Z,93.41
2019-03-05T21:10:18.652Z,91.54
2019-03-05T21:13:24.026Z,90.75
2019-03-05T21:16:30.520Z,91.89
2019-03-05T21:19:35.827Z,92.77
2019-03-05T21:22:42.106Z,93.82
2019-03-05T21:25:47.410Z,92.83
2019-03-05T21:28:52.701Z,92.95
2019-03-05T21:31:58.046Z,94.05
2019-03-05T21:35:04.396Z,93.69
2019-03-05T21:38:11.100Z,93.94
2019-03-05T21:41:16.588Z,93.75
2019-03-05T21:44:21.973Z,94.59
2019-03-05T21:47:30.199Z,95.53
2019-03-05T21:50:35.556Z,97.05
2019-03-05T21:53:40.958Z,97.76
2019-03-05T21:56:46.271Z,96.21
2019-03-05T21:59:51.769Z,96.34
2019-03-05T22:02:57.855Z,96.84
2019-03-05T22:06:03.088Z,97.20
2019-03-05T22:09:08.374Z,96.50
2019-03-05T22:12:15.225Z,97.31
2019-03-05T22:15:20.786Z,98.21
2019-03-05T22:18:26.127Z,96.25
2019-03-05T22:21:31.486Z,97.47
2019-03-05T22:24:36.826Z,97.57
2019-03-05T22:27:42.149Z,96.67
2019-03-05T22:30:52.485Z,95.63
2019-03-05T22:33:56.579Z,95.15
2019-03-05T22:37:05.147Z,95.64
2019-03-05T22:40:10.765Z,96.36
2019-03-05T22:43:16.212Z,96.03
2019-03-05T22:46:21.688Z,95.71
2019-03-05T22:49:26.975Z,95.76
2019-03-05T22:52:32.289Z,93.87
2019-03-05T22:55:37.639Z,95.51
2019-03-05T22:58:42.886Z,94.42
2019-03-05T23:01:49.154Z,95.14
2019-03-05T23:04:55.475Z,94.48
2019-03-05T23:08:00.866Z,94.93
2019-03-05T23:11:07.783Z,96.12
2019-03-05T23:14:13.349Z,95.29
2019-03-05T23:17:22.788Z,95.14
2019-03-05T23:20:28.265Z,96.27
2019-03-05T23:23:33.816Z,96.99
2019-03-05T23:26:40.104Z,97.17
2019-03-05T23:29:46.904Z,96.86
2019-03-05T23:32:52.543Z,97.90
2019-03-05T23:35:57.835Z,97.00
2019-03-05T23:39:04.834Z,97.44
2019-03-05T23:42:11.750Z,96.75
2019-03-05T23:45:22.245Z,96.73
2019-03-05T23:48:27.516Z,95.42
2019-03-05T23:51:33.119Z,94.87
2019-03-05T23:54:38.405Z,95.34
2019-03-05T23:57:43.688Z,94.65
